sensor_id;sensor_type;location;lat;lon;timestamp;P1;durP1;ratioP1;P2;durP2;ratioP2
80332;SDS011;69652;51.864;-2.246;2023-05-10T00:00:16;8.15;;;2.65;;
80332;SDS011;69652;51.864;-2.246;2023-05-10T00:02:42;9.65;;;2.47;;
80332;SDS011;69652;51.864;-2.246;2023-05-10T00:05:07;8.18;;;2.80;;
80332;SDS011;69652;51.864;-2.246;2023-05-10T00:07:33;8.68;;;2.80;;
80332;SDS011;69652;51.864;-2.246;2023-05-10T00:09:58;7.63;;;2.83;;
80332;SDS011;69652;51.864;-2.246;2023-05-10T00:12:24;8.18;;;2.63;;
80332;SDS011;69652;51.864;-2.246;2023-05-10T00:14:49;8.15;;;2.50;;
80332;SDS011;69652;51.864;-2.246;2023-05-10T00:17:15;9.07;;;2.40;;
80332;SDS011;69652;51.864;-2.246;2023-05-10T00:19:40;6.57;;;2.35;;
80332;SDS011;69652;51.864;-2.246;2023-05-10T00:22:05;5.28;;;2.40;;
80332;SDS011;69652;51.864;-2.246;2023-05-10T00:24:31;5.57;;;2.47;;
80332;SDS011;69652;51.864;-2.246;2023-05-10T00:26:56;6.43;;;2.90;;
80332;SDS011;69652;51.864;-2.246;2023-05-10T00:29:22;15.07;;;3.60;;
80332;SDS011;69652;51.864;-2.246;2023-05-10T00:31:47;6.22;;;2.42;;
80332;SDS011;69652;51.864;-2.246;2023-05-10T00:34:13;10.15;;;4.78;;
80332;SDS011;69652;51.864;-2.246;2023-05-10T00:36:39;13.02;;;4.22;;
80332;SDS011;69652;51.864;-2.246;2023-05-10T00:39:04;9.02;;;3.20;;
80332;SDS011;69652;51.864;-2.246;2023-05-10T00:41:33;6.63;;;3.08;;
80332;SDS011;69652;51.864;-2.246;2023-05-10T00:43:59;12.00;;;3.63;;
80332;SDS011;69652;51.864;-2.246;2023-05-10T00:46:25;9.57;;;3.42;;
80332;SDS011;69652;51.864;-2.246;2023-05-10T00:48:51;5.50;;;2.30;;
80332;SDS011;69652;51.864;-2.246;2023-05-10T00:51:17;4.75;;;2.17;;
80332;SDS011;69652;51.864;-2.246;2023-05-10T00:53:44;8.07;;;2.63;;
80332;SDS011;69652;51.864;-2.246;2023-05-10T00:56:11;9.07;;;3.25;;
80332;SDS011;69652;51.864;-2.246;2023-05-10T00:58:37;4.78;;;2.28;;
80332;SDS011;69652;51.864;-2.246;2023-05-10T01:01:03;9.93;;;4.03;;
80332;SDS011;69652;51.864;-2.246;2023-05-10T01:03:29;8.65;;;4.07;;
80332;SDS011;69652;51.864;-2.246;2023-05-10T01:05:56;9.20;;;3.25;;
80332;SDS011;69652;51.864;-2.246;2023-05-10T01:08:22;9.02;;;3.22;;
80332;SDS011;69652;51.864;-2.246;2023-05-10T01:10:47;7.18;;;3.05;;
80332;SDS011;69652;51.864;-2.246;2023-05-10T01:13:16;9.60;;;3.22;;
80332;SDS011;69652;51.864;-2.246;2023-05-10T01:15:57;10.05;;;3.22;;
80332;SDS011;69652;51.864;-2.246;2023-05-10T01:18:23;11.15;;;4.60;;
80332;SDS011;69652;51.864;-2.246;2023-05-10T01:20:54;7.40;;;2.78;;
80332;SDS011;69652;51.864;-2.246;2023-05-10T01:23:36;11.27;;;4.18;;
80332;SDS011;69652;51.864;-2.246;2023-05-10T01:34:35;10.27;;;3.50;;
80332;SDS011;69652;51.864;-2.246;2023-05-10T01:40:16;7.82;;;2.38;;
80332;SDS011;69652;51.864;-2.246;2023-05-10T01:42:51;8.23;;;3.13;;
80332;SDS011;69652;51.864;-2.246;2023-05-10T01:48:06;6.53;;;2.40;;
80332;SDS011;69652;51.864;-2.246;2023-05-10T01:50:35;8.90;;;2.90;;
80332;SDS011;69652;51.864;-2.246;2023-05-10T01:53:05;8.55;;;2.85;;
80332;SDS011;69652;51.864;-2.246;2023-05-10T01:55:34;7.75;;;2.55;;
80332;SDS011;69652;51.864;-2.246;2023-05-10T01:58:08;8.77;;;2.72;;
80332;SDS011;69652;51.864;-2.246;2023-05-10T02:00:36;11.65;;;2.85;;
80332;SDS011;69652;51.864;-2.246;2023-05-10T02:03:07;13.55;;;4.13;;
80332;SDS011;69652;51.864;-2.246;2023-05-10T02:05:35;12.32;;;2.92;;
80332;SDS011;69652;51.864;-2.246;2023-05-10T02:08:02;7.10;;;2.08;;
80332;SDS011;69652;51.864;-2.246;2023-05-10T02:10:32;10.73;;;3.55;;
80332;SDS011;69652;51.864;-2.246;2023-05-10T02:12:59;12.50;;;3.05;;
80332;SDS011;69652;51.864;-2.246;2023-05-10T02:15:27;8.80;;;3.42;;
80332;SDS011;69652;51.864;-2.246;2023-05-10T02:17:56;13.55;;;3.28;;
80332;SDS011;69652;51.864;-2.246;2023-05-10T02:20:25;10.43;;;4.45;;
80332;SDS011;69652;51.864;-2.246;2023-05-10T02:22:53;13.88;;;3.50;;
80332;SDS011;69652;51.864;-2.246;2023-05-10T02:25:21;5.50;;;2.72;;
80332;SDS011;69652;51.864;-2.246;2023-05-10T02:27:48;10.57;;;3.55;;
80332;SDS011;69652;51.864;-2.246;2023-05-10T02:30:15;8.80;;;3.15;;
80332;SDS011;69652;51.864;-2.246;2023-05-10T02:32:43;9.73;;;4.63;;
80332;SDS011;69652;51.864;-2.246;2023-05-10T02:35:10;14.27;;;4.30;;
80332;SDS011;69652;51.864;-2.246;2023-05-10T02:37:36;7.45;;;2.47;;
80332;SDS011;69652;51.864;-2.246;2023-05-10T02:40:04;16.23;;;3.70;;
80332;SDS011;69652;51.864;-2.246;2023-05-10T02:42:32;11.68;;;3.70;;
80332;SDS011;69652;51.864;-2.246;2023-05-10T02:45:01;8.48;;;3.03;;
80332;SDS011;69652;51.864;-2.246;2023-05-10T02:47:30;16.38;;;4.65;;
80332;SDS011;69652;51.864;-2.246;2023-05-10T02:49:56;8.00;;;2.65;;
80332;SDS011;69652;51.864;-2.246;2023-05-10T02:52:23;12.60;;;3.75;;
80332;SDS011;69652;51.864;-2.246;2023-05-10T02:54:54;10.20;;;3.63;;
80332;SDS011;69652;51.864;-2.246;2023-05-10T02:57:22;10.90;;;3.60;;
80332;SDS011;69652;51.864;-2.246;2023-05-10T02:59:51;14.35;;;3.83;;
80332;SDS011;69652;51.864;-2.246;2023-05-10T03:02:17;12.32;;;3.13;;
80332;SDS011;69652;51.864;-2.246;2023-05-10T03:04:42;15.85;;;4.43;;
80332;SDS011;69652;51.864;-2.246;2023-05-10T03:07:08;17.10;;;3.83;;
80332;SDS011;69652;51.864;-2.246;2023-05-10T03:09:34;14.00;;;4.55;;
80332;SDS011;69652;51.864;-2.246;2023-05-10T03:12:21;16.13;;;4.85;;
80332;SDS011;69652;51.864;-2.246;2023-05-10T03:17:45;9.93;;;3.33;;
80332;SDS011;69652;51.864;-2.246;2023-05-10T03:20:16;42.72;;;28.05;;
80332;SDS011;69652;51.864;-2.246;2023-05-10T03:22:55;37.75;;;23.08;;
80332;SDS011;69652;51.864;-2.246;2023-05-10T03:25:26;47.80;;;34.85;;
80332;SDS011;69652;51.864;-2.246;2023-05-10T03:27:52;51.88;;;34.47;;
80332;SDS011;69652;51.864;-2.246;2023-05-10T03:30:19;44.47;;;30.77;;
80332;SDS011;69652;51.864;-2.246;2023-05-10T03:32:45;49.47;;;34.95;;
80332;SDS011;69652;51.864;-2.246;2023-05-10T03:35:10;46.83;;;32.50;;
80332;SDS011;69652;51.864;-2.246;2023-05-10T03:37:38;49.17;;;33.30;;
80332;SDS011;69652;51.864;-2.246;2023-05-10T03:40:03;34.53;;;24.75;;
80332;SDS011;69652;51.864;-2.246;2023-05-10T03:42:30;31.08;;;20.83;;
80332;SDS011;69652;51.864;-2.246;2023-05-10T03:44:55;28.02;;;15.93;;
80332;SDS011;69652;51.864;-2.246;2023-05-10T03:47:21;19.38;;;9.07;;
80332;SDS011;69652;51.864;-2.246;2023-05-10T03:49:46;17.73;;;6.75;;
80332;SDS011;69652;51.864;-2.246;2023-05-10T03:52:12;19.75;;;8.30;;
80332;SDS011;69652;51.864;-2.246;2023-05-10T03:54:37;16.80;;;7.93;;
80332;SDS011;69652;51.864;-2.246;2023-05-10T03:57:03;12.40;;;5.72;;
80332;SDS011;69652;51.864;-2.246;2023-05-10T03:59:29;25.88;;;7.88;;
80332;SDS011;69652;51.864;-2.246;2023-05-10T04:01:54;12.70;;;5.15;;
80332;SDS011;69652;51.864;-2.246;2023-05-10T04:04:20;15.10;;;4.88;;
80332;SDS011;69652;51.864;-2.246;2023-05-10T04:06:46;21.42;;;6.28;;
80332;SDS011;69652;51.864;-2.246;2023-05-10T04:09:11;19.10;;;6.38;;
80332;SDS011;69652;51.864;-2.246;2023-05-10T04:11:37;20.63;;;5.85;;
80332;SDS011;69652;51.864;-2.246;2023-05-10T04:14:02;16.00;;;4.95;;
80332;SDS011;69652;51.864;-2.246;2023-05-10T04:16:28;20.48;;;7.00;;
80332;SDS011;69652;51.864;-2.246;2023-05-10T04:18:53;18.70;;;6.63;;
80332;SDS011;69652;51.864;-2.246;2023-05-10T04:21:19;14.25;;;5.15;;
80332;SDS011;69652;51.864;-2.246;2023-05-10T04:23:44;25.55;;;7.03;;
80332;SDS011;69652;51.864;-2.246;2023-05-10T04:26:10;12.98;;;4.97;;
80332;SDS011;69652;51.864;-2.246;2023-05-10T04:28:35;23.13;;;7.68;;
80332;SDS011;69652;51.864;-2.246;2023-05-10T04:31:10;27.33;;;7.50;;
80332;SDS011;69652;51.864;-2.246;2023-05-10T04:33:35;21.23;;;7.88;;
80332;SDS011;69652;51.864;-2.246;2023-05-10T04:36:02;26.52;;;9.45;;
80332;SDS011;69652;51.864;-2.246;2023-05-10T04:38:28;20.63;;;7.13;;
80332;SDS011;69652;51.864;-2.246;2023-05-10T04:40:54;23.55;;;9.98;;
80332;SDS011;69652;51.864;-2.246;2023-05-10T04:43:19;24.52;;;8.75;;
80332;SDS011;69652;51.864;-2.246;2023-05-10T04:45:45;17.20;;;7.60;;
80332;SDS011;69652;51.864;-2.246;2023-05-10T04:48:10;19.75;;;8.23;;
80332;SDS011;69652;51.864;-2.246;2023-05-10T04:50:36;31.88;;;10.82;;
80332;SDS011;69652;51.864;-2.246;2023-05-10T04:53:02;22.77;;;10.15;;
80332;SDS011;69652;51.864;-2.246;2023-05-10T04:55:27;30.77;;;11.90;;
80332;SDS011;69652;51.864;-2.246;2023-05-10T04:57:53;22.17;;;10.40;;
80332;SDS011;69652;51.864;-2.246;2023-05-10T05:00:20;28.95;;;10.65;;
80332;SDS011;69652;51.864;-2.246;2023-05-10T05:02:45;21.20;;;10.00;;
80332;SDS011;69652;51.864;-2.246;2023-05-10T05:05:11;19.77;;;7.82;;
80332;SDS011;69652;51.864;-2.246;2023-05-10T05:07:37;30.73;;;11.30;;
80332;SDS011;69652;51.864;-2.246;2023-05-10T05:10:04;31.52;;;12.15;;
80332;SDS011;69652;51.864;-2.246;2023-05-10T05:12:31;20.52;;;8.40;;
80332;SDS011;69652;51.864;-2.246;2023-05-10T05:14:56;29.83;;;12.90;;
80332;SDS011;69652;51.864;-2.246;2023-05-10T05:17:22;21.27;;;8.80;;
80332;SDS011;69652;51.864;-2.246;2023-05-10T05:19:47;30.73;;;10.30;;
80332;SDS011;69652;51.864;-2.246;2023-05-10T05:22:13;21.15;;;10.48;;
80332;SDS011;69652;51.864;-2.246;2023-05-10T05:24:38;19.98;;;8.35;;
80332;SDS011;69652;51.864;-2.246;2023-05-10T05:27:04;25.00;;;10.18;;
80332;SDS011;69652;51.864;-2.246;2023-05-10T05:29:29;24.13;;;10.80;;
80332;SDS011;69652;51.864;-2.246;2023-05-10T05:31:55;18.45;;;8.13;;
80332;SDS011;69652;51.864;-2.246;2023-05-10T05:34:20;20.33;;;9.05;;
80332;SDS011;69652;51.864;-2.246;2023-05-10T05:36:46;25.02;;;9.25;;
80332;SDS011;69652;51.864;-2.246;2023-05-10T05:39:12;22.95;;;9.15;;
80332;SDS011;69652;51.864;-2.246;2023-05-10T05:41:37;22.77;;;9.13;;
80332;SDS011;69652;51.864;-2.246;2023-05-10T05:44:03;18.08;;;8.15;;
80332;SDS011;69652;51.864;-2.246;2023-05-10T05:46:28;20.15;;;8.18;;
80332;SDS011;69652;51.864;-2.246;2023-05-10T05:48:54;20.77;;;9.23;;
80332;SDS011;69652;51.864;-2.246;2023-05-10T05:51:20;20.33;;;8.60;;
80332;SDS011;69652;51.864;-2.246;2023-05-10T05:53:46;30.30;;;12.07;;
80332;SDS011;69652;51.864;-2.246;2023-05-10T05:56:11;21.95;;;10.35;;
80332;SDS011;69652;51.864;-2.246;2023-05-10T05:58:37;24.30;;;10.20;;
80332;SDS011;69652;51.864;-2.246;2023-05-10T06:01:02;23.40;;;10.02;;
80332;SDS011;69652;51.864;-2.246;2023-05-10T06:03:28;22.20;;;9.80;;
80332;SDS011;69652;51.864;-2.246;2023-05-10T06:05:53;13.25;;;7.15;;
80332;SDS011;69652;51.864;-2.246;2023-05-10T06:08:18;18.55;;;7.63;;
80332;SDS011;69652;51.864;-2.246;2023-05-10T06:10:44;13.60;;;6.72;;
80332;SDS011;69652;51.864;-2.246;2023-05-10T06:13:10;15.73;;;6.93;;
80332;SDS011;69652;51.864;-2.246;2023-05-10T06:15:35;20.77;;;9.07;;
80332;SDS011;69652;51.864;-2.246;2023-05-10T06:18:01;18.45;;;6.97;;
80332;SDS011;69652;51.864;-2.246;2023-05-10T06:20:26;20.38;;;7.65;;
80332;SDS011;69652;51.864;-2.246;2023-05-10T06:22:52;12.02;;;6.18;;
80332;SDS011;69652;51.864;-2.246;2023-05-10T06:25:17;14.85;;;6.05;;
80332;SDS011;69652;51.864;-2.246;2023-05-10T06:27:43;13.70;;;6.38;;
80332;SDS011;69652;51.864;-2.246;2023-05-10T06:30:09;15.55;;;6.18;;
80332;SDS011;69652;51.864;-2.246;2023-05-10T06:32:36;19.33;;;6.47;;
80332;SDS011;69652;51.864;-2.246;2023-05-10T06:35:01;12.30;;;4.40;;
80332;SDS011;69652;51.864;-2.246;2023-05-10T06:37:27;15.20;;;5.68;;
80332;SDS011;69652;51.864;-2.246;2023-05-10T06:39:52;15.00;;;4.90;;
80332;SDS011;69652;51.864;-2.246;2023-05-10T06:42:18;17.17;;;5.68;;
80332;SDS011;69652;51.864;-2.246;2023-05-10T06:44:43;13.65;;;4.40;;
80332;SDS011;69652;51.864;-2.246;2023-05-10T06:47:08;12.98;;;4.80;;
80332;SDS011;69652;51.864;-2.246;2023-05-10T06:49:34;14.18;;;4.85;;
80332;SDS011;69652;51.864;-2.246;2023-05-10T06:52:00;11.77;;;5.32;;
80332;SDS011;69652;51.864;-2.246;2023-05-10T06:54:25;18.23;;;5.53;;
80332;SDS011;69652;51.864;-2.246;2023-05-10T06:56:50;13.95;;;5.13;;
80332;SDS011;69652;51.864;-2.246;2023-05-10T06:59:16;14.15;;;4.55;;
80332;SDS011;69652;51.864;-2.246;2023-05-10T07:01:44;11.52;;;4.97;;
80332;SDS011;69652;51.864;-2.246;2023-05-10T07:04:09;11.05;;;4.07;;
80332;SDS011;69652;51.864;-2.246;2023-05-10T07:06:34;11.15;;;3.90;;
80332;SDS011;69652;51.864;-2.246;2023-05-10T07:09:00;11.65;;;4.05;;
80332;SDS011;69652;51.864;-2.246;2023-05-10T07:11:26;12.07;;;3.92;;
80332;SDS011;69652;51.864;-2.246;2023-05-10T07:13:52;9.68;;;3.70;;
80332;SDS011;69652;51.864;-2.246;2023-05-10T07:16:17;14.68;;;4.47;;
80332;SDS011;69652;51.864;-2.246;2023-05-10T07:18:42;14.88;;;4.45;;
80332;SDS011;69652;51.864;-2.246;2023-05-10T07:21:08;14.45;;;4.72;;
80332;SDS011;69652;51.864;-2.246;2023-05-10T07:23:33;14.25;;;4.60;;
80332;SDS011;69652;51.864;-2.246;2023-05-10T07:26:02;9.82;;;4.63;;
80332;SDS011;69652;51.864;-2.246;2023-05-10T07:28:27;9.68;;;3.78;;
80332;SDS011;69652;51.864;-2.246;2023-05-10T07:30:53;11.07;;;3.53;;
80332;SDS011;69652;51.864;-2.246;2023-05-10T07:33:18;8.73;;;3.60;;
80332;SDS011;69652;51.864;-2.246;2023-05-10T07:35:44;9.95;;;3.25;;
80332;SDS011;69652;51.864;-2.246;2023-05-10T07:38:09;11.40;;;3.38;;
80332;SDS011;69652;51.864;-2.246;2023-05-10T07:40:36;6.53;;;2.65;;
80332;SDS011;69652;51.864;-2.246;2023-05-10T07:43:03;10.10;;;2.70;;
80332;SDS011;69652;51.864;-2.246;2023-05-10T07:45:28;7.72;;;2.67;;
80332;SDS011;69652;51.864;-2.246;2023-05-10T07:47:54;7.05;;;2.78;;
80332;SDS011;69652;51.864;-2.246;2023-05-10T07:50:19;6.72;;;2.97;;
80332;SDS011;69652;51.864;-2.246;2023-05-10T07:52:46;11.30;;;2.80;;
80332;SDS011;69652;51.864;-2.246;2023-05-10T07:55:12;7.25;;;2.17;;
80332;SDS011;69652;51.864;-2.246;2023-05-10T07:57:37;7.47;;;2.80;;
80332;SDS011;69652;51.864;-2.246;2023-05-10T08:00:04;11.07;;;2.80;;
80332;SDS011;69652;51.864;-2.246;2023-05-10T08:02:29;9.20;;;2.55;;
80332;SDS011;69652;51.864;-2.246;2023-05-10T08:04:55;10.15;;;2.47;;
80332;SDS011;69652;51.864;-2.246;2023-05-10T08:07:21;16.20;;;3.70;;
80332;SDS011;69652;51.864;-2.246;2023-05-10T08:09:46;7.43;;;2.30;;
80332;SDS011;69652;51.864;-2.246;2023-05-10T08:12:12;11.93;;;3.45;;
80332;SDS011;69652;51.864;-2.246;2023-05-10T08:14:37;8.25;;;2.08;;
80332;SDS011;69652;51.864;-2.246;2023-05-10T08:17:03;12.15;;;3.22;;
80332;SDS011;69652;51.864;-2.246;2023-05-10T08:19:29;5.70;;;2.17;;
80332;SDS011;69652;51.864;-2.246;2023-05-10T08:21:54;9.73;;;2.78;;
80332;SDS011;69652;51.864;-2.246;2023-05-10T08:24:23;8.85;;;2.30;;
80332;SDS011;69652;51.864;-2.246;2023-05-10T08:26:48;9.32;;;2.60;;
80332;SDS011;69652;51.864;-2.246;2023-05-10T08:29:14;10.80;;;2.55;;
80332;SDS011;69652;51.864;-2.246;2023-05-10T08:31:40;8.23;;;2.13;;
80332;SDS011;69652;51.864;-2.246;2023-05-10T08:34:05;7.65;;;2.10;;
80332;SDS011;69652;51.864;-2.246;2023-05-10T08:36:31;10.55;;;2.70;;
80332;SDS011;69652;51.864;-2.246;2023-05-10T08:38:57;5.80;;;2.05;;
80332;SDS011;69652;51.864;-2.246;2023-05-10T08:41:23;8.57;;;2.50;;
80332;SDS011;69652;51.864;-2.246;2023-05-10T08:43:50;8.68;;;3.17;;
80332;SDS011;69652;51.864;-2.246;2023-05-10T08:46:18;19.20;;;5.60;;
80332;SDS011;69652;51.864;-2.246;2023-05-10T08:48:45;12.77;;;3.20;;
80332;SDS011;69652;51.864;-2.246;2023-05-10T08:51:15;13.52;;;3.80;;
80332;SDS011;69652;51.864;-2.246;2023-05-10T08:53:47;14.02;;;3.55;;
80332;SDS011;69652;51.864;-2.246;2023-05-10T08:56:13;6.05;;;2.30;;
80332;SDS011;69652;51.864;-2.246;2023-05-10T08:58:40;9.27;;;2.58;;
80332;SDS011;69652;51.864;-2.246;2023-05-10T09:01:06;7.40;;;2.15;;
80332;SDS011;69652;51.864;-2.246;2023-05-10T09:03:32;8.18;;;2.47;;
80332;SDS011;69652;51.864;-2.246;2023-05-10T09:05:58;11.30;;;2.20;;
80332;SDS011;69652;51.864;-2.246;2023-05-10T09:08:25;10.27;;;3.35;;
80332;SDS011;69652;51.864;-2.246;2023-05-10T09:10:51;11.82;;;3.08;;
80332;SDS011;69652;51.864;-2.246;2023-05-10T09:13:17;9.80;;;2.10;;
80332;SDS011;69652;51.864;-2.246;2023-05-10T09:15:44;10.23;;;2.50;;
80332;SDS011;69652;51.864;-2.246;2023-05-10T09:18:10;7.88;;;2.38;;
80332;SDS011;69652;51.864;-2.246;2023-05-10T09:20:36;6.10;;;1.70;;
80332;SDS011;69652;51.864;-2.246;2023-05-10T09:23:02;5.03;;;1.40;;
80332;SDS011;69652;51.864;-2.246;2023-05-10T09:25:27;9.10;;;2.13;;
80332;SDS011;69652;51.864;-2.246;2023-05-10T09:27:53;8.80;;;1.95;;
80332;SDS011;69652;51.864;-2.246;2023-05-10T09:30:23;7.80;;;1.88;;
80332;SDS011;69652;51.864;-2.246;2023-05-10T09:32:53;6.35;;;1.88;;
80332;SDS011;69652;51.864;-2.246;2023-05-10T09:35:20;7.60;;;1.85;;
80332;SDS011;69652;51.864;-2.246;2023-05-10T09:37:52;5.53;;;1.70;;
80332;SDS011;69652;51.864;-2.246;2023-05-10T09:40:22;8.45;;;1.55;;
80332;SDS011;69652;51.864;-2.246;2023-05-10T09:43:02;6.57;;;1.90;;
80332;SDS011;69652;51.864;-2.246;2023-05-10T09:45:31;7.22;;;1.90;;
80332;SDS011;69652;51.864;-2.246;2023-05-10T09:47:58;4.00;;;1.45;;
80332;SDS011;69652;51.864;-2.246;2023-05-10T09:50:24;4.65;;;1.75;;
80332;SDS011;69652;51.864;-2.246;2023-05-10T09:52:52;8.63;;;1.77;;
80332;SDS011;69652;51.864;-2.246;2023-05-10T09:55:46;5.95;;;1.38;;
80332;SDS011;69652;51.864;-2.246;2023-05-10T09:58:11;4.63;;;1.15;;
80332;SDS011;69652;51.864;-2.246;2023-05-10T10:00:39;6.03;;;1.40;;
80332;SDS011;69652;51.864;-2.246;2023-05-10T10:03:06;5.05;;;1.30;;
80332;SDS011;69652;51.864;-2.246;2023-05-10T10:05:39;5.22;;;1.80;;
80332;SDS011;69652;51.864;-2.246;2023-05-10T10:08:05;6.20;;;1.15;;
80332;SDS011;69652;51.864;-2.246;2023-05-10T10:10:31;6.07;;;1.30;;
80332;SDS011;69652;51.864;-2.246;2023-05-10T10:12:58;10.90;;;1.45;;
80332;SDS011;69652;51.864;-2.246;2023-05-10T10:15:24;4.75;;;1.20;;
80332;SDS011;69652;51.864;-2.246;2023-05-10T10:17:51;5.55;;;1.55;;
80332;SDS011;69652;51.864;-2.246;2023-05-10T10:20:18;6.63;;;1.70;;
80332;SDS011;69652;51.864;-2.246;2023-05-10T10:22:45;4.85;;;1.33;;
80332;SDS011;69652;51.864;-2.246;2023-05-10T10:25:12;7.97;;;1.40;;
80332;SDS011;69652;51.864;-2.246;2023-05-10T10:35:31;4.28;;;1.20;;
80332;SDS011;69652;51.864;-2.246;2023-05-10T10:37:58;7.60;;;1.45;;
80332;SDS011;69652;51.864;-2.246;2023-05-10T10:42:51;7.72;;;1.60;;
80332;SDS011;69652;51.864;-2.246;2023-05-10T10:45:18;8.30;;;2.35;;
80332;SDS011;69652;51.864;-2.246;2023-05-10T10:47:44;7.22;;;1.60;;
80332;SDS011;69652;51.864;-2.246;2023-05-10T10:50:10;7.35;;;2.20;;
80332;SDS011;69652;51.864;-2.246;2023-05-10T10:52:38;5.15;;;1.50;;
80332;SDS011;69652;51.864;-2.246;2023-05-10T10:57:46;6.43;;;2.10;;
80332;SDS011;69652;51.864;-2.246;2023-05-10T11:00:24;8.82;;;2.47;;
80332;SDS011;69652;51.864;-2.246;2023-05-10T11:02:57;8.18;;;1.98;;
80332;SDS011;69652;51.864;-2.246;2023-05-10T11:08:25;9.20;;;2.40;;
80332;SDS011;69652;51.864;-2.246;2023-05-10T11:14:06;7.95;;;1.90;;
80332;SDS011;69652;51.864;-2.246;2023-05-10T11:16:16;8.93;;;2.35;;
80332;SDS011;69652;51.864;-2.246;2023-05-10T11:18:59;14.82;;;3.65;;
80332;SDS011;69652;51.864;-2.246;2023-05-10T11:21:27;8.85;;;2.80;;
80332;SDS011;69652;51.864;-2.246;2023-05-10T11:23:53;15.73;;;2.92;;
80332;SDS011;69652;51.864;-2.246;2023-05-10T11:26:21;9.90;;;3.05;;
80332;SDS011;69652;51.864;-2.246;2023-05-10T11:28:51;13.10;;;3.53;;
80332;SDS011;69652;51.864;-2.246;2023-05-10T11:31:20;11.27;;;4.32;;
80332;SDS011;69652;51.864;-2.246;2023-05-10T11:33:47;10.50;;;3.13;;
80332;SDS011;69652;51.864;-2.246;2023-05-10T11:36:16;12.25;;;3.28;;
80332;SDS011;69652;51.864;-2.246;2023-05-10T11:38:43;12.05;;;3.33;;
80332;SDS011;69652;51.864;-2.246;2023-05-10T11:41:09;10.77;;;2.88;;
80332;SDS011;69652;51.864;-2.246;2023-05-10T11:43:36;9.30;;;3.20;;
80332;SDS011;69652;51.864;-2.246;2023-05-10T11:46:07;11.93;;;3.65;;
80332;SDS011;69652;51.864;-2.246;2023-05-10T11:48:35;10.27;;;3.10;;
80332;SDS011;69652;51.864;-2.246;2023-05-10T11:51:01;15.93;;;3.30;;
80332;SDS011;69652;51.864;-2.246;2023-05-10T11:53:27;9.63;;;2.90;;
80332;SDS011;69652;51.864;-2.246;2023-05-10T11:56:03;12.38;;;3.53;;
80332;SDS011;69652;51.864;-2.246;2023-05-10T11:58:33;12.30;;;5.25;;
80332;SDS011;69652;51.864;-2.246;2023-05-10T12:00:59;14.82;;;5.65;;
80332;SDS011;69652;51.864;-2.246;2023-05-10T12:03:25;14.75;;;3.67;;
80332;SDS011;69652;51.864;-2.246;2023-05-10T12:05:51;13.98;;;4.00;;
80332;SDS011;69652;51.864;-2.246;2023-05-10T12:08:20;11.13;;;3.17;;
80332;SDS011;69652;51.864;-2.246;2023-05-10T12:10:50;9.82;;;3.13;;
80332;SDS011;69652;51.864;-2.246;2023-05-10T12:13:17;7.75;;;3.28;;
80332;SDS011;69652;51.864;-2.246;2023-05-10T12:15:43;8.40;;;2.42;;
80332;SDS011;69652;51.864;-2.246;2023-05-10T12:18:09;6.93;;;2.25;;
80332;SDS011;69652;51.864;-2.246;2023-05-10T12:20:36;9.27;;;2.30;;
80332;SDS011;69652;51.864;-2.246;2023-05-10T12:23:02;6.10;;;1.67;;
80332;SDS011;69652;51.864;-2.246;2023-05-10T12:25:33;6.30;;;2.00;;
80332;SDS011;69652;51.864;-2.246;2023-05-10T12:28:00;9.23;;;1.58;;
80332;SDS011;69652;51.864;-2.246;2023-05-10T12:30:29;8.63;;;2.35;;
80332;SDS011;69652;51.864;-2.246;2023-05-10T12:35:31;7.35;;;1.55;;
80332;SDS011;69652;51.864;-2.246;2023-05-10T12:37:57;8.68;;;3.83;;
80332;SDS011;69652;51.864;-2.246;2023-05-10T12:40:22;5.97;;;1.55;;
80332;SDS011;69652;51.864;-2.246;2023-05-10T12:42:48;5.35;;;1.70;;
80332;SDS011;69652;51.864;-2.246;2023-05-10T12:45:13;6.97;;;1.88;;
80332;SDS011;69652;51.864;-2.246;2023-05-10T12:47:39;10.88;;;2.88;;
80332;SDS011;69652;51.864;-2.246;2023-05-10T12:50:05;9.77;;;3.45;;
80332;SDS011;69652;51.864;-2.246;2023-05-10T12:52:31;6.47;;;1.80;;
80332;SDS011;69652;51.864;-2.246;2023-05-10T12:54:57;7.43;;;2.50;;
80332;SDS011;69652;51.864;-2.246;2023-05-10T12:57:24;8.32;;;2.45;;
80332;SDS011;69652;51.864;-2.246;2023-05-10T12:59:49;6.10;;;1.60;;
80332;SDS011;69652;51.864;-2.246;2023-05-10T13:02:16;8.50;;;2.75;;
80332;SDS011;69652;51.864;-2.246;2023-05-10T13:04:43;6.15;;;2.20;;
80332;SDS011;69652;51.864;-2.246;2023-05-10T13:07:09;11.15;;;2.25;;
80332;SDS011;69652;51.864;-2.246;2023-05-10T13:09:35;6.75;;;2.63;;
80332;SDS011;69652;51.864;-2.246;2023-05-10T13:12:01;6.32;;;2.28;;
80332;SDS011;69652;51.864;-2.246;2023-05-10T13:14:27;14.82;;;4.63;;
80332;SDS011;69652;51.864;-2.246;2023-05-10T13:16:52;10.00;;;2.13;;
80332;SDS011;69652;51.864;-2.246;2023-05-10T13:19:18;10.07;;;2.47;;
80332;SDS011;69652;51.864;-2.246;2023-05-10T13:21:44;12.23;;;2.53;;
80332;SDS011;69652;51.864;-2.246;2023-05-10T13:24:10;11.27;;;2.22;;
80332;SDS011;69652;51.864;-2.246;2023-05-10T13:26:38;12.10;;;3.00;;
80332;SDS011;69652;51.864;-2.246;2023-05-10T13:29:05;11.80;;;1.83;;
80332;SDS011;69652;51.864;-2.246;2023-05-10T13:31:30;12.73;;;2.22;;
80332;SDS011;69652;51.864;-2.246;2023-05-10T13:33:56;13.15;;;2.97;;
80332;SDS011;69652;51.864;-2.246;2023-05-10T13:36:21;8.48;;;1.65;;
80332;SDS011;69652;51.864;-2.246;2023-05-10T13:38:47;5.15;;;1.00;;
80332;SDS011;69652;51.864;-2.246;2023-05-10T13:41:13;3.85;;;0.82;;
80332;SDS011;69652;51.864;-2.246;2023-05-10T13:43:39;1.20;;;0.50;;
80332;SDS011;69652;51.864;-2.246;2023-05-10T13:46:04;3.95;;;0.90;;
80332;SDS011;69652;51.864;-2.246;2023-05-10T13:48:30;3.00;;;0.73;;
80332;SDS011;69652;51.864;-2.246;2023-05-10T13:50:55;1.15;;;0.60;;
80332;SDS011;69652;51.864;-2.246;2023-05-10T13:53:21;2.15;;;0.75;;
80332;SDS011;69652;51.864;-2.246;2023-05-10T13:55:47;2.72;;;0.80;;
80332;SDS011;69652;51.864;-2.246;2023-05-10T13:58:12;1.60;;;0.70;;
80332;SDS011;69652;51.864;-2.246;2023-05-10T14:00:38;2.70;;;0.70;;
80332;SDS011;69652;51.864;-2.246;2023-05-10T14:03:03;2.92;;;0.90;;
80332;SDS011;69652;51.864;-2.246;2023-05-10T14:05:30;2.65;;;0.82;;
80332;SDS011;69652;51.864;-2.246;2023-05-10T14:07:55;1.85;;;0.88;;
80332;SDS011;69652;51.864;-2.246;2023-05-10T14:10:21;11.73;;;4.70;;
80332;SDS011;69652;51.864;-2.246;2023-05-10T14:12:46;4.32;;;1.45;;
80332;SDS011;69652;51.864;-2.246;2023-05-10T14:15:12;2.28;;;1.13;;
80332;SDS011;69652;51.864;-2.246;2023-05-10T14:17:37;2.40;;;0.82;;
80332;SDS011;69652;51.864;-2.246;2023-05-10T14:20:03;2.42;;;0.90;;
80332;SDS011;69652;51.864;-2.246;2023-05-10T14:22:29;3.83;;;1.00;;
80332;SDS011;69652;51.864;-2.246;2023-05-10T14:24:54;9.27;;;4.90;;
80332;SDS011;69652;51.864;-2.246;2023-05-10T14:27:20;5.75;;;2.55;;
80332;SDS011;69652;51.864;-2.246;2023-05-10T14:29:46;6.65;;;2.00;;
80332;SDS011;69652;51.864;-2.246;2023-05-10T14:32:12;6.40;;;1.30;;
80332;SDS011;69652;51.864;-2.246;2023-05-10T14:34:38;7.03;;;1.75;;
80332;SDS011;69652;51.864;-2.246;2023-05-10T14:37:03;6.85;;;1.55;;
80332;SDS011;69652;51.864;-2.246;2023-05-10T14:39:29;9.55;;;2.47;;
80332;SDS011;69652;51.864;-2.246;2023-05-10T14:41:55;11.32;;;2.88;;
80332;SDS011;69652;51.864;-2.246;2023-05-10T14:44:20;10.10;;;2.33;;
80332;SDS011;69652;51.864;-2.246;2023-05-10T14:46:46;13.57;;;3.22;;
80332;SDS011;69652;51.864;-2.246;2023-05-10T14:49:12;7.22;;;2.38;;
80332;SDS011;69652;51.864;-2.246;2023-05-10T14:51:38;6.97;;;2.13;;
80332;SDS011;69652;51.864;-2.246;2023-05-10T14:54:03;7.85;;;1.80;;
80332;SDS011;69652;51.864;-2.246;2023-05-10T14:56:29;10.43;;;3.08;;
80332;SDS011;69652;51.864;-2.246;2023-05-10T14:58:54;15.20;;;4.88;;
80332;SDS011;69652;51.864;-2.246;2023-05-10T15:01:20;9.38;;;2.58;;